createdAt,value
2022-08-04T00:00:47.923Z,0
2022-08-04T00:01:48.229Z,0
2022-08-04T00:02:49.485Z,0
2022-08-04T00:03:47.387Z,0
2022-08-04T00:04:47.898Z,0
2022-08-04T00:05:47.630Z,0
2022-08-04T00:06:47.634Z,0
2022-08-04T00:07:51.868Z,0
2022-08-04T00:08:47.631Z,0
2022-08-04T00:09:47.879Z,0
2022-08-04T00:10:47.873Z,0
2022-08-04T00:11:47.875Z,0
2022-08-04T00:12:47.490Z,0
2022-08-04T00:14:09.824Z,0
2022-08-04T00:14:47.601Z,0
2022-08-04T00:15:47.869Z,0
2022-08-04T00:16:47.610Z,0
2022-08-04T00:17:47.948Z,0
2022-08-04T00:18:47.595Z,0
2022-08-04T00:19:47.587Z,0
2022-08-04T00:20:47.340Z,0
2022-08-04T00:21:47.585Z,0
2022-08-04T00:22:47.319Z,0
2022-08-04T00:24:19.589Z,0
2022-08-04T00:24:47.826Z,0
2022-08-04T00:25:47.319Z,0
2022-08-04T00:26:47.837Z,0
2022-08-04T00:27:47.814Z,0
2022-08-04T00:28:47.053Z,0
2022-08-04T00:29:47.563Z,0
2022-08-04T00:30:47.302Z,0
2022-08-04T00:32:04.404Z,0
2022-08-04T00:32:47.550Z,0
2022-08-04T00:33:49.806Z,0
2022-08-04T00:34:47.543Z,0
2022-08-04T00:35:47.533Z,0
2022-08-04T00:36:47.019Z,0
2022-08-04T00:37:47.525Z,0
2022-08-04T00:38:48.252Z,0
2022-08-04T00:39:48.093Z,0
2022-08-04T00:40:47.519Z,0
2022-08-04T00:42:03.147Z,0
2022-08-04T00:43:05.453Z,0
2022-08-04T00:43:47.513Z,0
2022-08-04T00:44:47.764Z,0
2022-08-04T00:46:23.202Z,0
2022-08-04T00:46:47.491Z,0
2022-08-04T00:47:47.754Z,0
2022-08-04T00:48:47.743Z,0
2022-08-04T00:49:47.484Z,0
2022-08-04T00:50:49.007Z,0
2022-08-04T00:51:47.765Z,0
2022-08-04T00:52:47.492Z,0
2022-08-04T00:53:56.742Z,0
2022-08-04T00:54:47.733Z,0
2022-08-04T00:55:47.463Z,0
2022-08-04T00:56:47.722Z,0
2022-08-04T00:57:47.466Z,0
2022-08-04T00:58:47.452Z,0
2022-08-04T00:59:48.067Z,0
2022-08-04T01:00:47.725Z,0
2022-08-04T01:01:48.030Z,0
2022-08-04T01:02:47.431Z,0
2022-08-04T01:03:47.702Z,0
2022-08-04T01:04:47.708Z,0
2022-08-04T01:05:47.429Z,0
2022-08-04T01:06:58.628Z,0
2022-08-04T01:07:47.684Z,0
2022-08-04T01:08:47.430Z,0
2022-08-04T01:09:47.445Z,0
2022-08-04T01:10:47.424Z,0
2022-08-04T01:12:03.910Z,0
2022-08-04T01:12:47.652Z,0
2022-08-04T01:13:47.401Z,0
2022-08-04T01:14:47.149Z,0
2022-08-04T01:16:07.145Z,0
2022-08-04T01:16:47.389Z,0
2022-08-04T01:17:47.136Z,0
2022-08-04T01:18:47.386Z,0
2022-08-04T01:19:47.122Z,0
2022-08-04T01:20:47.375Z,0
2022-08-04T01:21:48.624Z,0
2022-08-04T01:22:47.369Z,0
2022-08-04T01:23:47.626Z,0
2022-08-04T01:24:50.840Z,0
2022-08-04T01:25:49.055Z,0
2022-08-04T01:27:03.963Z,0
2022-08-04T01:27:49.788Z,0
2022-08-04T01:28:51.980Z,0
2022-08-04T01:29:57.773Z,0
2022-08-04T01:30:47.338Z,0
2022-08-04T01:31:47.081Z,0
2022-08-04T01:32:47.345Z,0
2022-08-04T01:34:10.208Z,0
2022-08-04T01:34:46.817Z,0
2022-08-04T01:35:54.317Z,0
2022-08-04T01:36:54.171Z,0
2022-08-04T01:37:47.585Z,0
2022-08-04T01:38:47.308Z,0
2022-08-04T01:39:47.577Z,0
2022-08-04T01:40:47.062Z,0
2022-08-04T01:42:06.001Z,0
2022-08-04T01:42:47.129Z,0
2022-08-04T01:43:48.388Z,0
2022-08-04T01:44:48.123Z,0
2022-08-04T01:45:48.352Z,0
2022-08-04T01:46:48.110Z,0
2022-08-04T01:47:48.095Z,0
2022-08-04T01:48:48.591Z,0
2022-08-04T01:49:48.461Z,0
2022-08-04T01:50:55.190Z,0
2022-08-04T01:51:48.080Z,0
2022-08-04T01:52:53.613Z,0
2022-08-04T01:53:48.337Z,0
2022-08-04T01:54:48.083Z,0
2022-08-04T01:56:02.091Z,0
2022-08-04T01:56:47.818Z,0
2022-08-04T01:57:48.384Z,0
2022-08-04T01:58:48.196Z,0
2022-08-04T01:59:47.804Z,0
2022-08-04T02:00:49.045Z,0
2022-08-04T02:01:48.373Z,0
2022-08-04T02:02:48.444Z,0
2022-08-04T02:04:29.257Z,0
2022-08-04T02:04:47.784Z,0
2022-08-04T02:06:11.059Z,0
2022-08-04T02:06:48.032Z,0
2022-08-04T02:07:48.035Z,0
2022-08-04T02:08:48.280Z,0
2022-08-04T02:10:01.393Z,0
2022-08-04T02:10:48.026Z,0
2022-08-04T02:11:48.270Z,0
2022-08-04T02:12:47.756Z,0
2022-08-04T02:13:48.259Z,0
2022-08-04T02:14:48.249Z,0
2022-08-04T02:15:48.015Z,0
2022-08-04T02:16:54.570Z,0
2022-08-04T02:17:47.988Z,0
2022-08-04T02:18:47.742Z,0
2022-08-04T02:19:47.732Z,0
2022-08-04T02:20:47.979Z,0
2022-08-04T02:21:49.455Z,0
2022-08-04T02:22:48.232Z,0
2022-08-04T02:23:48.238Z,0
2022-08-04T02:24:47.460Z,0
2022-08-04T02:25:47.720Z,0
2022-08-04T02:26:48.219Z,0
2022-08-04T02:28:07.741Z,0
2022-08-04T02:28:47.701Z,0
2022-08-04T02:29:47.957Z,0
2022-08-04T02:30:48.366Z,0
2022-08-04T02:31:47.686Z,0
2022-08-04T02:32:47.690Z,0
2022-08-04T02:33:48.000Z,0
2022-08-04T02:34:48.194Z,0
2022-08-04T02:35:47.680Z,0
2022-08-04T02:36:48.197Z,0
2022-08-04T02:37:48.185Z,0
2022-08-04T02:38:48.169Z,0
2022-08-04T02:39:55.699Z,0
2022-08-04T02:40:48.173Z,0
2022-08-04T02:41:47.927Z,0
2022-08-04T02:42:47.918Z,0
2022-08-04T02:43:59.309Z,0
2022-08-04T02:44:47.895Z,0
2022-08-04T02:45:47.641Z,0
2022-08-04T02:46:47.898Z,0
2022-08-04T02:48:36.901Z,0
2022-08-04T02:49:50.053Z,0
2022-08-04T02:50:48.147Z,0
2022-08-04T02:51:47.890Z,0
2022-08-04T02:52:48.130Z,0
2022-08-04T02:53:47.624Z,0
2022-08-04T02:54:48.130Z,0
2022-08-04T02:56:01.376Z,0
2022-08-04T02:56:52.122Z,0
2022-08-04T02:57:47.874Z,0
2022-08-04T02:58:47.614Z,0
2022-08-04T02:59:47.603Z,0
2022-08-04T03:00:48.173Z,0
2022-08-04T03:02:05.429Z,0
2022-08-04T03:02:47.581Z,0
2022-08-04T03:03:48.105Z,0
2022-08-04T03:04:47.575Z,0
2022-08-04T03:06:13.503Z,0
2022-08-04T03:06:47.574Z,4
2022-08-04T03:07:48.068Z,4
2022-08-04T03:08:47.831Z,0
2022-08-04T03:09:47.812Z,0
2022-08-04T03:10:51.750Z,4
2022-08-04T03:11:47.814Z,4
2022-08-04T03:12:47.807Z,4
2022-08-04T03:13:47.791Z,4
2022-08-04T03:14:48.076Z,8
2022-08-04T03:15:47.799Z,4
2022-08-04T03:16:47.792Z,4
2022-08-04T03:18:00.220Z,8
2022-08-04T03:18:47.528Z,8
2022-08-04T03:19:48.037Z,12
2022-08-04T03:20:48.034Z,16
2022-08-04T03:21:47.799Z,16
2022-08-04T03:23:20.598Z,24
2022-08-04T03:23:47.767Z,24
2022-08-04T03:24:47.503Z,28
2022-08-04T03:26:04.237Z,32
2022-08-04T03:26:47.768Z,36
2022-08-04T03:27:47.495Z,40
2022-08-04T03:28:47.490Z,48
2022-08-04T03:29:48.006Z,52
2022-08-04T03:30:47.998Z,60
2022-08-04T03:31:47.749Z,64
2022-08-04T03:32:47.221Z,76
2022-08-04T03:49:52.386Z,300
2022-08-04T03:50:52.368Z,316
2022-08-04T03:51:52.365Z,340
2022-08-04T03:52:54.530Z,360
2022-08-04T03:53:52.095Z,380
2022-08-04T03:54:52.350Z,400
2022-08-04T03:55:52.590Z,424
2022-08-04T03:56:52.324Z,448
2022-08-04T03:57:52.093Z,472
2022-08-04T03:58:52.329Z,496
2022-08-04T03:59:55.858Z,520
2022-08-04T04:00:52.574Z,548
2022-08-04T04:02:11.404Z,576
2022-08-04T04:02:52.721Z,596
2022-08-04T04:03:52.316Z,624
2022-08-04T04:04:52.818Z,648
2022-08-04T04:06:15.009Z,688
2022-08-04T04:07:02.332Z,708
2022-08-04T04:08:16.431Z,740
2022-08-04T04:08:56.216Z,756
2022-08-04T04:10:11.796Z,788
2022-08-04T04:10:52.513Z,808
2022-08-04T04:12:04.530Z,840
2022-08-04T04:12:52.260Z,860
2022-08-04T04:13:52.000Z,892
2022-08-04T04:14:52.505Z,916
2022-08-04T04:15:56.869Z,944
2022-08-04T04:16:52.238Z,968
2022-08-04T04:17:52.496Z,988
2022-08-04T04:18:52.577Z,1016
2022-08-04T04:19:52.481Z,1044
2022-08-04T04:20:52.221Z,1068
2022-08-04T04:21:52.489Z,1088
2022-08-04T04:22:52.219Z,1116
2022-08-04T04:23:52.983Z,1136
2022-08-04T04:24:51.969Z,1160
2022-08-04T04:25:52.220Z,1184
2022-08-04T04:26:56.070Z,1208
2022-08-04T04:27:52.195Z,1232
2022-08-04T04:28:54.347Z,1256
2022-08-04T04:29:51.940Z,1276
2022-08-04T04:30:52.449Z,1300
2022-08-04T04:31:52.204Z,1324
2022-08-04T04:32:51.928Z,1344
2022-08-04T04:33:51.674Z,1368
2022-08-04T04:34:53.426Z,1384
2022-08-04T04:35:52.173Z,1408
2022-08-04T04:36:52.424Z,1432
2022-08-04T04:37:55.885Z,1456
2022-08-04T04:38:52.747Z,1476
2022-08-04T04:39:52.168Z,1496
2022-08-04T04:40:52.411Z,1520
2022-08-04T04:41:52.147Z,1536
2022-08-04T04:42:52.150Z,1556
2022-08-04T04:43:58.118Z,1576
2022-08-04T04:44:52.142Z,1596
2022-08-04T04:45:52.126Z,1612
2022-08-04T04:46:52.133Z,1632
2022-08-04T04:48:16.688Z,1660
2022-08-04T04:48:52.116Z,1672
2022-08-04T04:49:52.119Z,1692
2022-08-04T04:50:51.606Z,1712
2022-08-04T04:51:52.116Z,1732
2022-08-04T04:52:52.109Z,1752
2022-08-04T04:53:51.852Z,1776
2022-08-04T04:54:51.843Z,1796
2022-08-04T04:55:55.549Z,1820
2022-08-04T04:56:52.356Z,1840
2022-08-04T04:58:00.860Z,1864
2022-08-04T04:58:52.097Z,1880
2022-08-04T04:59:52.642Z,1900
2022-08-04T05:00:52.343Z,1920
2022-08-04T05:01:51.831Z,1944
2022-08-04T05:02:52.354Z,1968
2022-08-04T05:03:52.066Z,1988
2022-08-04T05:04:51.814Z,2008
2022-08-04T05:05:51.556Z,2032
2022-08-04T05:07:01.006Z,2056
2022-08-04T05:07:52.063Z,2072
2022-08-04T05:08:58.648Z,2100
2022-08-04T05:09:52.332Z,2124
2022-08-04T05:10:52.310Z,2152
2022-08-04T05:11:52.308Z,2176
2022-08-04T05:14:46.411Z,2256
2022-08-04T05:15:55.900Z,2300
2022-08-04T05:16:55.884Z,2344
2022-08-04T05:17:57.588Z,2384
2022-08-04T05:18:56.141Z,2428
2022-08-04T05:19:57.459Z,2480
2022-08-04T05:20:55.875Z,2532
2022-08-04T05:21:56.130Z,2592
2022-08-04T05:22:55.867Z,2636
2022-08-04T05:23:55.875Z,2672
2022-08-04T05:24:55.612Z,2716
2022-08-04T05:26:06.500Z,2784
2022-08-04T05:26:55.611Z,2832
2022-08-04T05:27:56.136Z,2892
2022-08-04T05:28:56.129Z,2960
2022-08-04T05:29:55.904Z,3036
2022-08-04T05:30:55.850Z,3100
2022-08-04T05:31:55.847Z,3140
2022-08-04T05:33:02.457Z,3160
2022-08-04T05:33:55.579Z,3172
2022-08-04T05:34:55.591Z,3172
2022-08-04T05:36:44.690Z,3160
2022-08-04T05:36:55.834Z,3160
2022-08-04T05:38:08.382Z,3176
2022-08-04T05:38:56.044Z,3200
2022-08-04T05:39:55.561Z,3232
2022-08-04T05:40:56.498Z,3228
2022-08-04T05:42:09.970Z,3196
2022-08-04T05:42:56.067Z,3184
2022-08-04T05:43:55.579Z,3164
2022-08-04T05:44:58.103Z,3136
2022-08-04T05:45:55.558Z,3132
2022-08-04T05:47:01.616Z,3148
2022-08-04T05:47:55.803Z,3152
2022-08-04T05:48:55.556Z,3116
2022-08-04T05:50:09.569Z,3044
2022-08-04T05:51:01.092Z,3004
2022-08-04T05:51:55.793Z,3008
2022-08-04T05:53:04.682Z,3032
2022-08-04T05:53:55.794Z,3016
2022-08-04T05:54:56.041Z,2964
2022-08-04T05:56:05.954Z,2872
2022-08-04T05:56:56.053Z,2872
2022-08-04T05:58:00.614Z,2852
2022-08-04T05:58:56.059Z,2792
2022-08-04T05:59:55.510Z,2748
2022-08-04T06:00:58.640Z,2744
2022-08-04T06:02:03.395Z,2844
2022-08-04T06:02:55.781Z,2844
2022-08-04T06:03:56.026Z,2828
2022-08-04T06:04:55.786Z,2788
2022-08-04T06:05:55.267Z,2792
2022-08-04T06:06:55.768Z,2816
2022-08-04T06:08:20.144Z,2816
2022-08-04T06:08:55.258Z,2836
2022-08-04T06:09:55.501Z,2856
2022-08-04T06:10:56.016Z,2908
2022-08-04T06:12:09.940Z,2916
2022-08-04T06:12:56.016Z,2972
2022-08-04T06:13:58.334Z,3016
2022-08-04T06:14:57.771Z,3032
2022-08-04T06:15:59.138Z,3052
2022-08-04T06:16:58.545Z,3072
2022-08-04T06:20:32.721Z,3092
2022-08-04T06:20:58.180Z,3108
2022-08-04T06:21:46.050Z,3128
2022-08-04T06:22:45.550Z,3176
2022-08-04T06:24:09.308Z,3244
2022-08-04T06:24:45.546Z,3292
2022-08-04T06:25:45.797Z,3372
2022-08-04T06:26:45.791Z,3448
2022-08-04T06:27:45.784Z,3528
2022-08-04T06:28:45.792Z,3616
2022-08-04T06:29:56.211Z,3700
2022-08-04T06:30:45.776Z,3732
2022-08-04T06:32:44.546Z,3676
2022-08-04T06:33:06.014Z,3656
2022-08-04T06:34:01.961Z,3716
2022-08-04T06:34:54.288Z,3732
2022-08-04T06:35:54.036Z,3788
2022-08-04T06:36:54.537Z,3904
2022-08-04T06:37:57.750Z,4032
2022-08-04T06:39:05.678Z,4292
2022-08-04T06:39:56.306Z,4524
2022-08-04T06:40:54.285Z,4636
2022-08-04T06:42:28.398Z,4856
2022-08-04T06:42:54.526Z,4916
2022-08-04T06:43:54.541Z,5704
2022-08-04T06:44:55.942Z,5936
2022-08-04T06:45:54.021Z,5740
2022-08-04T06:46:54.023Z,6344
2022-08-04T06:47:54.275Z,7144
2022-08-04T06:48:53.754Z,7040
2022-08-04T06:51:51.670Z,12108
2022-08-04T06:52:01.421Z,13560
2022-08-04T06:53:01.421Z,20768
2022-08-04T06:54:01.415Z,29664
2022-08-04T06:55:00.912Z,33984
2022-08-04T06:56:01.169Z,34400
2022-08-04T06:57:03.472Z,39200
2022-08-04T06:58:06.230Z,38912
2022-08-04T06:59:01.160Z,39104
2022-08-04T07:00:01.233Z,39424
2022-08-04T07:01:01.427Z,39616
2022-08-04T07:02:01.633Z,39840
2022-08-04T07:03:00.904Z,40768
2022-08-04T07:04:01.169Z,37920
2022-08-04T07:05:04.582Z,34432
2022-08-04T07:06:14.087Z,37280
2022-08-04T07:07:01.422Z,38720
2022-08-04T07:08:04.296Z,40544
2022-08-04T07:09:01.180Z,40032
2022-08-04T07:10:01.492Z,40000
2022-08-04T07:11:00.675Z,37632
2022-08-04T07:12:01.202Z,37920
2022-08-04T07:13:00.973Z,38304
2022-08-04T07:14:01.194Z,38144
2022-08-04T07:15:01.454Z,34080
2022-08-04T07:16:00.962Z,37696
2022-08-04T07:17:01.208Z,40992
2022-08-04T07:18:01.211Z,41440
2022-08-04T07:19:15.878Z,40928
2022-08-04T07:20:01.479Z,39808
2022-08-04T07:21:00.976Z,37856
2022-08-04T07:22:32.261Z,34240
2022-08-04T07:23:01.254Z,43744
2022-08-04T07:24:01.514Z,43936
2022-08-04T07:25:12.433Z,43840
2022-08-04T07:26:18.426Z,42560
2022-08-04T07:27:01.283Z,43136
2022-08-04T07:28:01.292Z,41792
2022-08-04T07:29:02.238Z,40832
2022-08-04T07:30:01.304Z,42720
2022-08-04T07:31:00.806Z,44608
2022-08-04T07:32:01.868Z,47136
2022-08-04T07:33:00.826Z,43968
2022-08-04T07:34:27.518Z,43616
2022-08-04T07:35:04.357Z,45152
2022-08-04T07:36:19.701Z,46016
2022-08-04T07:37:03.040Z,43872
2022-08-04T07:38:03.975Z,33984
2022-08-04T07:39:03.127Z,21152
2022-08-04T07:40:01.499Z,10364
2022-08-04T07:41:01.337Z,8500
2022-08-04T07:42:02.105Z,7364
2022-08-04T07:43:01.440Z,6992
2022-08-04T07:44:01.442Z,6584
2022-08-04T07:45:01.457Z,6284
2022-08-04T07:46:01.475Z,5976
2022-08-04T07:47:01.222Z,5856
2022-08-04T07:48:12.995Z,5564
2022-08-04T07:49:01.298Z,5432
2022-08-04T07:50:04.794Z,5512
2022-08-04T07:51:01.253Z,5584
2022-08-04T07:52:01.040Z,5624
2022-08-04T07:54:01.417Z,5676
2022-08-04T07:55:10.925Z,5904
2022-08-04T07:56:10.933Z,5908
2022-08-04T07:57:39.829Z,6100
2022-08-04T07:58:10.951Z,6048
2022-08-04T07:59:11.213Z,6104
2022-08-04T08:00:10.729Z,6252
2022-08-04T08:01:11.242Z,6192
2022-08-04T08:02:11.137Z,6088
2022-08-04T08:03:11.483Z,5980
2022-08-04T08:04:11.011Z,5840
2022-08-04T08:05:10.752Z,5680
2022-08-04T08:06:45.842Z,5436
2022-08-04T08:07:11.284Z,5396
2022-08-04T08:08:11.294Z,5268
2022-08-04T08:09:20.585Z,5052
2022-08-04T08:10:10.799Z,5088
2022-08-04T08:11:10.581Z,5100
2022-08-04T08:12:57.070Z,4868
2022-08-04T08:14:10.572Z,4740
2022-08-04T08:15:15.766Z,4652
2022-08-04T08:16:11.112Z,4504
2022-08-04T08:17:10.865Z,4456
2022-08-04T08:18:11.109Z,4396
2022-08-04T08:19:13.134Z,4352
2022-08-04T08:20:11.385Z,4292
2022-08-04T08:21:11.142Z,4292
2022-08-04T08:22:10.908Z,4264
2022-08-04T08:23:11.437Z,4288
2022-08-04T08:24:19.747Z,4284
2022-08-04T08:25:10.662Z,4304
2022-08-04T08:26:11.181Z,4328
2022-08-04T08:27:11.201Z,4500
2022-08-04T08:28:11.449Z,4556
2022-08-04T08:29:11.467Z,4560
2022-08-04T08:30:14.394Z,4520
2022-08-04T08:31:14.214Z,4748
2022-08-04T08:32:15.543Z,4832
2022-08-04T08:33:13.081Z,4824
2022-08-04T08:34:11.479Z,4868
2022-08-04T08:35:11.492Z,4812
2022-08-04T08:36:10.991Z,4732
2022-08-04T08:37:11.259Z,4724
2022-08-04T08:38:11.436Z,4676
2022-08-04T08:39:11.309Z,4640
2022-08-04T08:40:11.017Z,4604
2022-08-04T08:41:11.272Z,4544
2022-08-04T08:42:11.280Z,4572
2022-08-04T08:44:36.631Z,4728
2022-08-04T08:44:47.422Z,4780
2022-08-04T08:45:47.440Z,4916
2022-08-04T08:46:56.787Z,5020
2022-08-04T08:48:12.918Z,5052
2022-08-04T08:48:47.699Z,5036
2022-08-04T08:50:10.206Z,5060
2022-08-04T08:50:47.219Z,5008
2022-08-04T08:51:54.341Z,5016
2022-08-04T08:53:08.978Z,5040
2022-08-04T08:53:47.486Z,4988
2022-08-04T08:54:47.506Z,4932
2022-08-04T08:55:47.256Z,4908
2022-08-04T08:56:47.236Z,4828
2022-08-04T08:58:06.279Z,4768
2022-08-04T08:58:47.510Z,4736
2022-08-04T08:59:47.261Z,4592
2022-08-04T09:00:47.809Z,4508
2022-08-04T09:01:49.107Z,4452
2022-08-04T09:02:47.290Z,4404
2022-08-04T09:03:47.021Z,4372
2022-08-04T09:04:50.618Z,4356
2022-08-04T09:05:47.314Z,4400
2022-08-04T09:06:49.095Z,4364
2022-08-04T09:07:47.577Z,4668
2022-08-04T09:08:47.839Z,4720
2022-08-04T09:09:47.571Z,4700
2022-08-04T09:10:48.062Z,4632
2022-08-04T09:11:47.075Z,4568
2022-08-04T09:12:47.609Z,4444
2022-08-04T09:13:47.602Z,4152
2022-08-04T09:14:48.848Z,3996
2022-08-04T09:15:48.162Z,4368
2022-08-04T09:16:47.358Z,4392
2022-08-04T09:17:47.613Z,4372
2022-08-04T09:18:47.614Z,4268
2022-08-04T09:19:47.645Z,4216
2022-08-04T09:20:47.637Z,4268
2022-08-04T09:21:47.638Z,4308
2022-08-04T09:22:47.908Z,4460
2022-08-04T09:23:47.644Z,4500
2022-08-04T09:24:47.655Z,4232
2022-08-04T09:25:49.467Z,4252
2022-08-04T09:26:47.684Z,4412
2022-08-04T09:27:47.669Z,4444
2022-08-04T09:29:02.954Z,4588
2022-08-04T09:29:47.949Z,4668
2022-08-04T09:30:47.435Z,4712
2022-08-04T09:32:12.497Z,4724
2022-08-04T09:32:47.449Z,4744
2022-08-04T09:33:52.639Z,4728
2022-08-04T09:34:47.720Z,4884
2022-08-04T09:35:47.990Z,5112
2022-08-04T09:36:47.981Z,5264
2022-08-04T09:37:53.005Z,5360
2022-08-04T09:38:52.472Z,5300
2022-08-04T09:39:57.392Z,5180
2022-08-04T09:41:04.674Z,4864
2022-08-04T09:42:01.703Z,4752
2022-08-04T09:42:57.975Z,4784
2022-08-04T09:45:08.757Z,4732
2022-08-04T09:45:52.633Z,4704
2022-08-04T09:46:34.364Z,4652
2022-08-04T09:47:47.114Z,4484
2022-08-04T09:48:34.239Z,4428
2022-08-04T09:49:34.735Z,4348
2022-08-04T09:50:34.527Z,4236
2022-08-04T09:52:06.352Z,4240
2022-08-04T09:52:34.753Z,4264
2022-08-04T09:53:34.584Z,4240
2022-08-04T09:54:37.368Z,4364
2022-08-04T09:55:34.598Z,4416
2022-08-04T09:56:34.097Z,4648
2022-08-04T09:57:34.371Z,4704
2022-08-04T09:58:34.369Z,4360
2022-08-04T09:59:34.890Z,4528
2022-08-04T10:00:47.739Z,4572
2022-08-04T10:01:34.426Z,4660
2022-08-04T10:02:34.832Z,4588
2022-08-04T10:03:34.801Z,4468
2022-08-04T10:04:34.398Z,4356
2022-08-04T10:05:37.537Z,4244
2022-08-04T10:06:34.682Z,4148
2022-08-04T10:07:34.946Z,4092
2022-08-04T10:08:34.687Z,4020
2022-08-04T10:09:34.429Z,3944
2022-08-04T10:10:35.335Z,3900
2022-08-04T10:11:35.619Z,3876
2022-08-04T10:12:35.648Z,3892
2022-08-04T10:13:35.355Z,3892
2022-08-04T10:14:35.613Z,3952
2022-08-04T10:15:35.614Z,4040
2022-08-04T10:16:36.817Z,4144
2022-08-04T10:17:35.366Z,4148
2022-08-04T10:18:35.624Z,4208
2022-08-04T10:19:35.379Z,4384
2022-08-04T10:21:10.376Z,4648
2022-08-04T10:21:35.398Z,4684
2022-08-04T10:23:14.913Z,4768
2022-08-04T10:24:02.270Z,4792
2022-08-04T10:24:35.666Z,4804
2022-08-04T10:26:12.862Z,4724
2022-08-04T10:26:35.449Z,4688
2022-08-04T10:27:35.687Z,4552
2022-08-04T10:28:35.684Z,4484
2022-08-04T10:29:35.705Z,4524
2022-08-04T10:30:38.041Z,4660
2022-08-04T10:31:35.711Z,4740
2022-08-04T10:32:37.883Z,4892
2022-08-04T10:33:36.284Z,5036
2022-08-04T10:34:35.734Z,5132
2022-08-04T10:35:35.211Z,4952
2022-08-04T10:36:35.741Z,4908
2022-08-04T10:38:07.357Z,5144
2022-08-04T10:38:35.857Z,5252
2022-08-04T10:39:50.978Z,5412
2022-08-04T10:40:35.768Z,5496
2022-08-04T10:41:35.259Z,5600
2022-08-04T10:42:35.529Z,5680
2022-08-04T10:43:35.301Z,5704
2022-08-04T10:44:47.002Z,5684
2022-08-04T10:45:36.047Z,5612
2022-08-04T10:46:35.542Z,5604
2022-08-04T10:47:35.805Z,5708
2022-08-04T10:48:42.725Z,5248
2022-08-04T10:49:36.082Z,4860
2022-08-04T10:50:36.115Z,5268
2022-08-04T10:52:02.797Z,5836
2022-08-04T10:52:36.095Z,5780
2022-08-04T10:53:36.105Z,5824
2022-08-04T10:54:36.104Z,5732
2022-08-04T10:56:15.362Z,4984
2022-08-04T10:56:35.611Z,4864
2022-08-04T10:57:36.491Z,4728
2022-08-04T10:58:54.713Z,4588
2022-08-04T10:59:35.630Z,4488
2022-08-04T11:00:35.890Z,4388
2022-08-04T11:02:11.840Z,4244
2022-08-04T11:02:36.417Z,4208
2022-08-04T11:03:36.244Z,4108
2022-08-04T11:04:35.903Z,4024
2022-08-04T11:05:46.252Z,3956
2022-08-04T11:06:35.940Z,3888
2022-08-04T11:07:35.940Z,3812
2022-08-04T11:08:35.741Z,3768
2022-08-04T11:09:36.140Z,3736
2022-08-04T11:10:36.394Z,3688
2022-08-04T11:12:04.758Z,3620
2022-08-04T11:12:36.151Z,3568
2022-08-04T11:13:37.190Z,3708
2022-08-04T11:14:36.418Z,3968
2022-08-04T11:15:36.445Z,3996
2022-08-04T11:16:36.454Z,3972
2022-08-04T11:17:35.933Z,3932
2022-08-04T11:18:36.443Z,3904
2022-08-04T11:20:33.307Z,4072
2022-08-04T11:20:44.994Z,4112
2022-08-04T11:21:44.742Z,4120
2022-08-04T11:22:45.261Z,3976
2022-08-04T11:23:45.045Z,3780
2022-08-04T11:24:45.542Z,3724
2022-08-04T11:25:48.388Z,3692
2022-08-04T11:26:47.594Z,3588
2022-08-04T11:27:45.036Z,3500
2022-08-04T11:28:45.038Z,3892
2022-08-04T11:29:45.297Z,3556
2022-08-04T11:30:45.311Z,3744
2022-08-04T11:31:48.481Z,4232
2022-08-04T11:32:45.065Z,4180
2022-08-04T11:33:45.370Z,4180
2022-08-04T11:34:57.129Z,4148
2022-08-04T11:35:45.330Z,4104
2022-08-04T11:36:45.338Z,4060
2022-08-04T11:37:45.353Z,3984
2022-08-04T11:38:46.897Z,3840
2022-08-04T11:39:45.434Z,3744
2022-08-04T11:41:05.503Z,4064
2022-08-04T11:41:45.376Z,4404
2022-08-04T11:42:45.632Z,4912
2022-08-04T11:44:15.029Z,4492
2022-08-04T11:44:45.137Z,4352
2022-08-04T11:45:45.645Z,4068
2022-08-04T11:46:45.425Z,3956
2022-08-04T11:47:44.916Z,4008
2022-08-04T11:48:45.420Z,3772
2022-08-04T11:50:03.607Z,3500
2022-08-04T11:50:47.395Z,3836
2022-08-04T11:51:45.681Z,3784
2022-08-04T11:52:45.453Z,3964
2022-08-04T11:53:45.450Z,4168
2022-08-04T11:54:55.170Z,4292
2022-08-04T11:56:39.480Z,3888
2022-08-04T11:56:48.735Z,3852
2022-08-04T11:57:56.353Z,3680
2022-08-04T11:58:57.272Z,3568
2022-08-04T11:59:49.007Z,3608
2022-08-04T12:00:49.321Z,3596
2022-08-04T12:01:49.470Z,3612
2022-08-04T12:02:49.425Z,3552
2022-08-04T12:04:09.017Z,3476
2022-08-04T12:04:49.049Z,3460
2022-08-04T12:05:49.035Z,3492
2022-08-04T12:07:38.992Z,3600
2022-08-04T12:07:51.982Z,3564
2022-08-04T12:08:51.545Z,3524
2022-08-04T12:09:51.359Z,3524
2022-08-04T12:10:51.301Z,3528
2022-08-04T12:11:53.354Z,3600
2022-08-04T12:12:51.054Z,3540
2022-08-04T12:13:51.057Z,3616
2022-08-04T12:14:51.307Z,3712
2022-08-04T12:15:51.321Z,3656
2022-08-04T12:16:51.364Z,3564
2022-08-04T12:18:00.371Z,3548
2022-08-04T12:18:57.364Z,3600
2022-08-04T12:20:44.166Z,3856
2022-08-04T12:20:57.076Z,3876
2022-08-04T12:22:02.409Z,3868
2022-08-04T12:22:58.111Z,3784
2022-08-04T12:24:06.889Z,3732
2022-08-04T12:24:56.852Z,3656
2022-08-04T12:25:56.857Z,3588
2022-08-04T12:26:56.859Z,3544
2022-08-04T12:27:56.869Z,3492
2022-08-04T12:29:16.437Z,3360
2022-08-04T12:31:14.197Z,3228
2022-08-04T12:31:24.991Z,2952
2022-08-04T12:32:24.733Z,2988
2022-08-04T12:34:03.131Z,2956
2022-08-04T12:34:25.012Z,2904
2022-08-04T12:35:24.770Z,3216
2022-08-04T12:36:28.069Z,3224
2022-08-04T12:37:29.678Z,3068
2022-08-04T12:38:25.408Z,3020
2022-08-04T12:39:25.502Z,3148
2022-08-04T12:40:37.365Z,2900
2022-08-04T12:41:24.786Z,2688
2022-08-04T12:42:28.183Z,2632
2022-08-04T12:43:25.109Z,2596
2022-08-04T12:44:44.160Z,3004
2022-08-04T12:45:25.077Z,3048
2022-08-04T12:46:24.561Z,3080
2022-08-04T12:47:35.222Z,3228
2022-08-04T12:48:28.260Z,3560
2022-08-04T12:49:25.356Z,3632
2022-08-04T12:50:24.850Z,3768
2022-08-04T12:52:15.136Z,3740
2022-08-04T12:53:54.964Z,3988
2022-08-04T12:54:39.966Z,3972
2022-08-04T12:55:39.640Z,4040
2022-08-04T12:56:39.723Z,4056
2022-08-04T12:57:39.476Z,3908
2022-08-04T12:58:49.513Z,3860
2022-08-04T12:59:39.759Z,4056
2022-08-04T13:00:47.198Z,4128
2022-08-04T13:02:17.901Z,4104
2022-08-04T13:02:40.170Z,4052
2022-08-04T13:03:39.763Z,3556
2022-08-04T13:04:50.464Z,3884
2022-08-04T13:05:40.647Z,3704
2022-08-04T13:06:39.785Z,3800
2022-08-04T13:07:46.217Z,3880
2022-08-04T13:08:39.543Z,3992
2022-08-04T13:09:39.802Z,3948
2022-08-04T13:10:39.818Z,4032
2022-08-04T13:11:39.769Z,4504
2022-08-04T13:12:39.966Z,4852
2022-08-04T13:13:39.588Z,5000
2022-08-04T13:14:39.582Z,4988
2022-08-04T13:16:01.586Z,5060
2022-08-04T13:16:48.779Z,4868
2022-08-04T13:17:47.136Z,4952
2022-08-04T13:18:40.915Z,5180
2022-08-04T13:19:49.844Z,5168
2022-08-04T13:20:43.225Z,5172
2022-08-04T13:30:30.237Z,6880
2022-08-04T13:30:39.525Z,6792
2022-08-04T13:31:54.541Z,6524
2022-08-04T13:32:40.054Z,6464
2022-08-04T13:33:39.545Z,6624
2022-08-04T13:34:39.553Z,6636
2022-08-04T13:36:02.614Z,7140
2022-08-04T13:36:39.823Z,7360
2022-08-04T13:37:40.174Z,7736
2022-08-04T13:38:40.092Z,8008
2022-08-04T13:39:40.146Z,8004
2022-08-04T13:40:39.862Z,7740
2022-08-04T13:41:44.659Z,7272
2022-08-04T13:42:42.223Z,6804
2022-08-04T13:44:25.737Z,6252
2022-08-04T13:45:42.049Z,5660
2022-08-04T13:46:39.379Z,5392
2022-08-04T13:47:39.907Z,5104
2022-08-04T13:48:39.816Z,4820
2022-08-04T13:50:15.224Z,4656
2022-08-04T13:50:39.661Z,4672
2022-08-04T13:52:12.998Z,4660
2022-08-04T13:52:39.928Z,4668
2022-08-04T13:53:39.701Z,4664
2022-08-04T13:54:46.873Z,4812
2022-08-04T13:55:40.048Z,4908
2022-08-04T13:56:39.965Z,5216
2022-08-04T13:57:39.969Z,5480
2022-08-04T13:58:47.214Z,5880
2022-08-04T13:59:40.997Z,6312
2022-08-04T14:00:41.533Z,6488
2022-08-04T14:01:42.134Z,6556
2022-08-04T14:02:41.313Z,6396
2022-08-04T14:03:59.956Z,6264
2022-08-04T14:04:41.020Z,6196
2022-08-04T14:06:07.261Z,5984
2022-08-04T14:06:41.300Z,5920
2022-08-04T14:07:44.059Z,5764
2022-08-04T14:08:41.312Z,5516
2022-08-04T14:10:04.965Z,5212
2022-08-04T14:10:40.563Z,5148
2022-08-04T14:12:50.392Z,5192
2022-08-04T14:13:00.948Z,5204
2022-08-04T14:14:01.221Z,5200
2022-08-04T14:15:00.696Z,5180
2022-08-04T14:16:10.643Z,5304